^^
Station Historical Data
Daily Summary for December 07, 2017 Units:  Both    English   Metric
« Previous Day
Next Day »
Daily Weekly Monthly Yearly Custom
  High: Low: Average:
Temperature: 41.7 °F /  5.4 °C 27.8 °F /  -2.3 °C 34.3 °F /  1.3 °C
Dew Point: 29.1 °F /  -1.6 °C 21.7 °F /  -5.7 °C 24.1 °F /  -4.4 °C
Humidity: 78 % 50 % 67 %
Wind Speed: 11.1 mph /  17.9 km/h - 1.5 mph /  2.4 km/h
Wind Gust: 20.7 mph /  33.3 km/h - -
Wind:- - WSW
Pressure: 30.10 in /  1019.2 hPa 29.99 in /  1015.5 hPa -
Precipitation: 0.00 in /  0 mm    
Historical Graphs
 
 
Tabular Data for December 07, 2017
Time Temperature Dew Point Pressure Wind Wind Speed Wind Gust Humidity Rainfall Rate (Hourly) solar Conditions
00:00 29.3 °F /  -1.5 °C 23.3 °F /  -4.8 °C 30.02 in /  1016.5 hPa Calm     78 % 0.00 in /  0 mm 0.0 W/m2 CLR
00:05 29.2 °F /  -1.6 °C 23.2 °F /  -4.9 °C 30.02 in /  1016.5 hPa Calm     78 % 0.00 in /  0 mm 0.0 W/m2 RA
00:10 29.1 °F /  -1.6 °C 23.1 °F /  -4.9 °C 30.02 in /  1016.5 hPa Calm     78 % 0.00 in /  0 mm 0.0 W/m2 RA
00:14 29.2 °F /  -1.6 °C 23.2 °F /  -4.9 °C 30.02 in /  1016.5 hPa Calm     78 % 0.00 in /  0 mm 0.0 W/m2 CLR
00:19 29.4 °F /  -1.4 °C 23.4 °F /  -4.8 °C 30.02 in /  1016.5 hPa Calm     78 % 0.00 in /  0 mm 0.0 W/m2 CLR
00:24 29.6 °F /  -1.3 °C 23.6 °F /  -4.7 °C 30.02 in /  1016.5 hPa Calm     78 % 0.00 in /  0 mm 0.0 W/m2 BKN
00:29 29.5 °F /  -1.4 °C 23.2 °F /  -4.9 °C 30.02 in /  1016.5 hPa Calm     77 % 0.00 in /  0 mm 0.0 W/m2 BKN
00:34 29.5 °F /  -1.4 °C 23.2 °F /  -4.9 °C 30.02 in /  1016.5 hPa Calm     77 % 0.00 in /  0 mm 0.0 W/m2 BKN
00:39 29.4 °F /  -1.4 °C 23.1 °F /  -4.9 °C 30.02 in /  1016.5 hPa Calm     77 % 0.00 in /  0 mm 0.0 W/m2 BKN
00:44 29.5 °F /  -1.4 °C 23.2 °F /  -4.9 °C 30.02 in /  1016.5 hPa Calm     77 % 0.00 in /  0 mm 0.0 W/m2 BKN
00:50 29.7 °F /  -1.3 °C 23.4 °F /  -4.8 °C 30.02 in /  1016.5 hPa Calm     77 % 0.00 in /  0 mm 0.0 W/m2 BKN
00:55 30.2 °F /  -1 °C 23.5 °F /  -4.7 °C 30.02 in /  1016.5 hPa Calm     76 % 0.00 in /  0 mm 0.0 W/m2 BKN
01:00 30.7 °F /  -0.7 °C 23.7 °F /  -4.6 °C 30.02 in /  1016.5 hPa WSW 0.1 mph /  0.2 km/h 3.5 mph /  5.6 km/h 75 % 0.00 in /  0 mm 0.0 W/m2 BKN
01:05 31.1 °F /  -0.5 °C 23.8 °F /  -4.6 °C 30.01 in /  1016.1 hPa WSW 0.7 mph /  1.1 km/h 5.8 mph /  9.3 km/h 74 % 0.00 in /  0 mm 0.0 W/m2 CLR
01:10 31.4 °F /  -0.3 °C 23.4 °F /  -4.8 °C 30.02 in /  1016.5 hPa SW 0.4 mph /  0.6 km/h 5.8 mph /  9.3 km/h 72 % 0.00 in /  0 mm 0.0 W/m2 CLR
01:15 31.6 °F /  -0.2 °C 23.6 °F /  -4.7 °C 30.02 in /  1016.5 hPa SW 2.4 mph /  3.9 km/h 5.8 mph /  9.3 km/h 72 % 0.00 in /  0 mm 0.0 W/m2 CLR
01:20 31.8 °F /  -0.1 °C 23.5 °F /  -4.7 °C 30.02 in /  1016.5 hPa WSW 3.1 mph /  5 km/h 4.6 mph /  7.4 km/h 71 % 0.00 in /  0 mm 0.0 W/m2 CLR
01:25 31.8 °F /  -0.1 °C 23.1 °F /  -4.9 °C 30.02 in /  1016.5 hPa WSW 1.3 mph /  2.1 km/h 4.6 mph /  7.4 km/h 70 % 0.00 in /  0 mm 0.0 W/m2 CLR
01:30 31.8 °F /  -0.1 °C 23.1 °F /  -4.9 °C 30.02 in /  1016.5 hPa SW 0.8 mph /  1.3 km/h 6.9 mph /  11.1 km/h 70 % 0.00 in /  0 mm 0.0 W/m2 CLR
01:35 31.8 °F /  -0.1 °C 23.1 °F /  -4.9 °C 30.02 in /  1016.5 hPa SW 0.7 mph /  1.1 km/h 6.9 mph /  11.1 km/h 70 % 0.00 in /  0 mm 0.0 W/m2 CLR
01:40 31.8 °F /  -0.1 °C 23.1 °F /  -4.9 °C 30.02 in /  1016.5 hPa Calm   3.5 mph /  5.6 km/h 70 % 0.00 in /  0 mm 0.0 W/m2 CLR
01:45 31.3 °F /  -0.4 °C 22.6 °F /  -5.2 °C 30.02 in /  1016.5 hPa SW 0.7 mph /  1.1 km/h 3.5 mph /  5.6 km/h 70 % 0.00 in /  0 mm 0.0 W/m2 CLR
01:50 31.0 °F /  -0.6 °C 22.7 °F /  -5.2 °C 30.02 in /  1016.5 hPa Calm   3.0 mph /  4.8 km/h 71 % 0.00 in /  0 mm 0.0 W/m2 CLR
01:55 31.0 °F /  -0.6 °C 22.7 °F /  -5.2 °C 30.02 in /  1016.5 hPa SW 1.0 mph /  1.6 km/h 4.0 mph /  6.4 km/h 71 % 0.00 in /  0 mm 0.0 W/m2 CLR
02:00 31.0 °F /  -0.6 °C 22.7 °F /  -5.2 °C 30.02 in /  1016.5 hPa SW 0.2 mph /  0.3 km/h 3.5 mph /  5.6 km/h 71 % 0.00 in /  0 mm 0.0 W/m2 CLR
02:05 31.1 °F /  -0.5 °C 22.8 °F /  -5.1 °C 30.02 in /  1016.5 hPa Calm   4.0 mph /  6.4 km/h 71 % 0.00 in /  0 mm 0.0 W/m2 CLR
02:10 31.0 °F /  -0.6 °C 22.7 °F /  -5.2 °C 30.02 in /  1016.5 hPa Calm   4.0 mph /  6.4 km/h 71 % 0.00 in /  0 mm 0.0 W/m2 CLR
02:15 30.8 °F /  -0.7 °C 22.8 °F /  -5.1 °C 30.02 in /  1016.5 hPa Calm   3.5 mph /  5.6 km/h 72 % 0.00 in /  0 mm 0.0 W/m2 CLR
02:20 30.6 °F /  -0.8 °C 22.6 °F /  -5.2 °C 30.02 in /  1016.5 hPa WSW 1.0 mph /  1.6 km/h 4.0 mph /  6.4 km/h 72 % 0.00 in /  0 mm 0.0 W/m2 CLR
02:23 30.6 °F /  -0.8 °C 22.6 °F /  -5.2 °C 30.03 in /  1016.8 hPa WSW 1.5 mph /  2.4 km/h 3.5 mph /  5.6 km/h 72 % 0.00 in /  0 mm 0.0 W/m2 CLR
02:28 30.8 °F /  -0.7 °C 22.8 °F /  -5.1 °C 30.02 in /  1016.5 hPa WSW 0.5 mph /  0.8 km/h 6.9 mph /  11.1 km/h 72 % 0.00 in /  0 mm 0.0 W/m2 CLR
02:33 30.8 °F /  -0.7 °C 22.8 °F /  -5.1 °C 30.02 in /  1016.5 hPa WSW 0.7 mph /  1.1 km/h 6.9 mph /  11.1 km/h 72 % 0.00 in /  0 mm 0.0 W/m2 CLR
02:38 30.8 °F /  -0.7 °C 22.8 °F /  -5.1 °C 30.02 in /  1016.5 hPa WSW 0.4 mph /  0.6 km/h 3.5 mph /  5.6 km/h 72 % 0.00 in /  0 mm 0.0 W/m2 CLR
02:43 30.8 °F /  -0.7 °C 22.8 °F /  -5.1 °C 30.03 in /  1016.8 hPa Calm   3.5 mph /  5.6 km/h 72 % 0.00 in /  0 mm 0.0 W/m2 CLR
02:48 30.6 °F /  -0.8 °C 22.6 °F /  -5.2 °C 30.02 in /  1016.5 hPa WSW 0.8 mph /  1.3 km/h 3.5 mph /  5.6 km/h 72 % 0.00 in /  0 mm 0.0 W/m2 CLR
02:53 30.4 °F /  -0.9 °C 22.4 °F /  -5.3 °C 30.02 in /  1016.5 hPa WSW 1.4 mph /  2.3 km/h 3.5 mph /  5.6 km/h 72 % 0.00 in /  0 mm 0.0 W/m2 CLR
02:58 30.2 °F /  -1 °C 22.3 °F /  -5.4 °C 30.02 in /  1016.5 hPa Calm   3.5 mph /  5.6 km/h 72 % 0.00 in /  0 mm 0.0 W/m2 CLR
03:03 30.1 °F /  -1.1 °C 22.5 °F /  -5.3 °C 30.02 in /  1016.5 hPa WSW 0.7 mph /  1.1 km/h 3.5 mph /  5.6 km/h 73 % 0.00 in /  0 mm 0.0 W/m2 CLR
03:08 30.3 °F /  -0.9 °C 22.7 °F /  -5.2 °C 30.02 in /  1016.5 hPa Calm   4.6 mph /  7.4 km/h 73 % 0.00 in /  0 mm 0.0 W/m2 CLR
03:13 30.4 °F /  -0.9 °C 22.4 °F /  -5.3 °C 30.02 in /  1016.5 hPa SW 1.8 mph /  2.9 km/h 6.9 mph /  11.1 km/h 72 % 0.00 in /  0 mm 0.0 W/m2 CLR
03:18 30.4 °F /  -0.9 °C 22.4 °F /  -5.3 °C 30.02 in /  1016.5 hPa WSW 1.4 mph /  2.3 km/h 6.9 mph /  11.1 km/h 72 % 0.00 in /  0 mm 0.0 W/m2 CLR
03:23 30.4 °F /  -0.9 °C 22.4 °F /  -5.3 °C 30.02 in /  1016.5 hPa WSW 1.6 mph /  2.6 km/h 6.9 mph /  11.1 km/h 72 % 0.00 in /  0 mm 0.0 W/m2 CLR
03:28 30.3 °F /  -0.9 °C 22.4 °F /  -5.3 °C 30.02 in /  1016.5 hPa WSW 0.2 mph /  0.3 km/h 3.5 mph /  5.6 km/h 72 % 0.00 in /  0 mm 0.0 W/m2 CLR
03:33 30.2 °F /  -1 °C 22.3 °F /  -5.4 °C 30.02 in /  1016.5 hPa WSW 0.4 mph /  0.6 km/h 3.5 mph /  5.6 km/h 72 % 0.00 in /  0 mm 0.0 W/m2 CLR
03:38 30.2 °F /  -1 °C 22.6 °F /  -5.2 °C 30.02 in /  1016.5 hPa WSW 1.0 mph /  1.6 km/h 3.5 mph /  5.6 km/h 73 % 0.00 in /  0 mm 0.0 W/m2 CLR
03:43 30.2 °F /  -1 °C 22.3 °F /  -5.4 °C 30.02 in /  1016.5 hPa WSW 1.8 mph /  2.9 km/h 4.6 mph /  7.4 km/h 72 % 0.00 in /  0 mm 0.0 W/m2 CLR
03:48 30.3 °F /  -0.9 °C 22.4 °F /  -5.3 °C 30.01 in /  1016.1 hPa SW 1.3 mph /  2.1 km/h 4.6 mph /  7.4 km/h 72 % 0.00 in /  0 mm 0.0 W/m2 CLR
03:53 30.2 °F /  -1 °C 22.3 °F /  -5.4 °C 30.02 in /  1016.5 hPa Calm   4.6 mph /  7.4 km/h 72 % 0.00 in /  0 mm 0.0 W/m2 CLR
03:58 30.1 °F /  -1.1 °C 22.5 °F /  -5.3 °C 30.02 in /  1016.5 hPa SW 0.5 mph /  0.8 km/h 3.5 mph /  5.6 km/h 73 % 0.00 in /  0 mm 0.0 W/m2 CLR
04:03 29.9 °F /  -1.2 °C 22.3 °F /  -5.4 °C 30.02 in /  1016.5 hPa SW 0.6 mph /  1 km/h 3.5 mph /  5.6 km/h 73 % 0.00 in /  0 mm 0.0 W/m2 CLR
04:08 29.7 °F /  -1.3 °C 22.4 °F /  -5.3 °C 30.02 in /  1016.5 hPa Calm   3.5 mph /  5.6 km/h 74 % 0.00 in /  0 mm 0.0 W/m2 CLR
04:13 29.6 °F /  -1.3 °C 22.3 °F /  -5.4 °C 30.02 in /  1016.5 hPa SW 1.2 mph /  1.9 km/h 3.5 mph /  5.6 km/h 74 % 0.00 in /  0 mm 0.0 W/m2 CLR
04:18 29.5 °F /  -1.4 °C 22.2 °F /  -5.4 °C 30.02 in /  1016.5 hPa SW 1.3 mph /  2.1 km/h 3.5 mph /  5.6 km/h 74 % 0.00 in /  0 mm 0.0 W/m2 CLR
04:23 29.3 °F /  -1.5 °C 22.0 °F /  -5.6 °C 30.02 in /  1016.5 hPa SW 1.9 mph /  3.1 km/h 3.5 mph /  5.6 km/h 74 % 0.00 in /  0 mm 0.0 W/m2 CLR
04:28 29.2 °F /  -1.6 °C 22.3 °F /  -5.4 °C 30.02 in /  1016.5 hPa SW 1.8 mph /  2.9 km/h 3.5 mph /  5.6 km/h 75 % 0.00 in /  0 mm 0.0 W/m2 CLR
04:33 29.1 °F /  -1.6 °C 22.2 °F /  -5.4 °C 30.02 in /  1016.5 hPa SW 2.0 mph /  3.2 km/h 3.5 mph /  5.6 km/h 75 % 0.00 in /  0 mm 0.0 W/m2 CLR
04:38 29.0 °F /  -1.7 °C 22.1 °F /  -5.5 °C 30.02 in /  1016.5 hPa SW 3.0 mph /  4.8 km/h 3.5 mph /  5.6 km/h 75 % 0.00 in /  0 mm 0.0 W/m2 CLR
04:43 29.0 °F /  -1.7 °C 22.1 °F /  -5.5 °C 30.02 in /  1016.5 hPa SW 1.0 mph /  1.6 km/h 4.6 mph /  7.4 km/h 75 % 0.00 in /  0 mm 0.0 W/m2 CLR
04:48 29.0 °F /  -1.7 °C 22.4 °F /  -5.3 °C 30.02 in /  1016.5 hPa SW 2.1 mph /  3.4 km/h 4.6 mph /  7.4 km/h 76 % 0.00 in /  0 mm 0.0 W/m2 CLR
04:53 29.0 °F /  -1.7 °C 22.4 °F /  -5.3 °C 30.02 in /  1016.5 hPa SSW 1.7 mph /  2.7 km/h 4.6 mph /  7.4 km/h 76 % 0.00 in /  0 mm 0.0 W/m2 CLR
04:58 28.9 °F /  -1.7 °C 22.3 °F /  -5.4 °C 30.02 in /  1016.5 hPa SSW 2.0 mph /  3.2 km/h 4.6 mph /  7.4 km/h 76 % 0.00 in /  0 mm 0.0 W/m2 CLR
05:03 28.8 °F /  -1.8 °C 22.2 °F /  -5.4 °C 30.02 in /  1016.5 hPa SSW 1.9 mph /  3.1 km/h 4.6 mph /  7.4 km/h 76 % 0.00 in /  0 mm 0.0 W/m2 CLR
05:08 28.8 °F /  -1.8 °C 22.2 °F /  -5.4 °C 30.02 in /  1016.5 hPa Calm   4.6 mph /  7.4 km/h 76 % 0.00 in /  0 mm 0.0 W/m2 CLR
05:13 28.6 °F /  -1.9 °C 22.0 °F /  -5.6 °C 30.02 in /  1016.5 hPa Calm   3.5 mph /  5.6 km/h 76 % 0.00 in /  0 mm 0.0 W/m2 CLR
05:18 28.5 °F /  -1.9 °C 22.2 °F /  -5.4 °C 30.02 in /  1016.5 hPa Calm     77 % 0.00 in /  0 mm 0.0 W/m2 CLR
05:23 28.5 °F /  -1.9 °C 22.2 °F /  -5.4 °C 30.02 in /  1016.5 hPa Calm     77 % 0.00 in /  0 mm 0.0 W/m2 CLR
05:28 28.4 °F /  -2 °C 22.1 °F /  -5.5 °C 30.03 in /  1016.8 hPa Calm     77 % 0.00 in /  0 mm 0.0 W/m2 CLR
05:33 28.2 °F /  -2.1 °C 21.9 °F /  -5.6 °C 30.03 in /  1016.8 hPa Calm     77 % 0.00 in /  0 mm 0.0 W/m2 CLR
05:38 28.0 °F /  -2.2 °C 21.7 °F /  -5.7 °C 30.03 in /  1016.8 hPa Calm     77 % 0.00 in /  0 mm 0.0 W/m2 CLR
05:43 27.8 °F /  -2.3 °C 21.8 °F /  -5.7 °C 30.04 in /  1017.2 hPa Calm     78 % 0.00 in /  0 mm 0.0 W/m2 CLR
05:48 27.8 °F /  -2.3 °C 21.8 °F /  -5.7 °C 30.04 in /  1017.2 hPa Calm     78 % 0.00 in /  0 mm 0.0 W/m2 CLR
05:53 27.8 °F /  -2.3 °C 21.8 °F /  -5.7 °C 30.04 in /  1017.2 hPa SW 0.6 mph /  1 km/h 3.5 mph /  5.6 km/h 78 % 0.00 in /  0 mm 0.0 W/m2 CLR
05:58 28.0 °F /  -2.2 °C 22.0 °F /  -5.6 °C 30.04 in /  1017.2 hPa Calm   3.5 mph /  5.6 km/h 78 % 0.00 in /  0 mm 0.0 W/m2 CLR
06:03 28.1 °F /  -2.2 °C 22.1 °F /  -5.5 °C 30.04 in /  1017.2 hPa Calm   4.6 mph /  7.4 km/h 78 % 0.00 in /  0 mm 0.0 W/m2 CLR
06:08 28.5 °F /  -1.9 °C 22.5 °F /  -5.3 °C 30.04 in /  1017.2 hPa WSW 1.7 mph /  2.7 km/h 6.9 mph /  11.1 km/h 78 % 0.00 in /  0 mm 0.0 W/m2 CLR
06:13 28.8 °F /  -1.8 °C 22.8 °F /  -5.1 °C 30.04 in /  1017.2 hPa West 2.5 mph /  4 km/h 6.9 mph /  11.1 km/h 78 % 0.00 in /  0 mm 0.0 W/m2 CLR
06:18 29.0 °F /  -1.7 °C 23.0 °F /  -5 °C 30.05 in /  1017.5 hPa WSW 2.3 mph /  3.7 km/h 6.9 mph /  11.1 km/h 78 % 0.00 in /  0 mm 0.0 W/m2 CLR
06:23 29.1 °F /  -1.6 °C 22.8 °F /  -5.1 °C 30.05 in /  1017.5 hPa WSW 0.7 mph /  1.1 km/h 6.9 mph /  11.1 km/h 77 % 0.00 in /  0 mm 0.0 W/m2 CLR
06:28 29.0 °F /  -1.7 °C 22.7 °F /  -5.2 °C 30.05 in /  1017.5 hPa SW 1.7 mph /  2.7 km/h 5.8 mph /  9.3 km/h 77 % 0.00 in /  0 mm 0.0 W/m2 CLR
06:33 28.8 °F /  -1.8 °C 22.5 °F /  -5.3 °C 30.04 in /  1017.2 hPa SW 1.7 mph /  2.7 km/h 5.8 mph /  9.3 km/h 77 % 0.00 in /  0 mm 0.0 W/m2 CLR
06:38 28.9 °F /  -1.7 °C 22.6 °F /  -5.2 °C 30.05 in /  1017.5 hPa SW 2.1 mph /  3.4 km/h 5.8 mph /  9.3 km/h 77 % 0.00 in /  0 mm 0.0 W/m2 CLR
06:43 28.9 °F /  -1.7 °C 22.6 °F /  -5.2 °C 30.05 in /  1017.5 hPa SW 0.6 mph /  1 km/h 4.6 mph /  7.4 km/h 77 % 0.00 in /  0 mm 0.0 W/m2 CLR
06:48 28.9 °F /  -1.7 °C 22.6 °F /  -5.2 °C 30.05 in /  1017.5 hPa West 0.2 mph /  0.3 km/h 4.6 mph /  7.4 km/h 77 % 0.00 in /  0 mm 0.0 W/m2 CLR
06:53 29.0 °F /  -1.7 °C 22.4 °F /  -5.3 °C 30.05 in /  1017.5 hPa WSW 0.6 mph /  1 km/h 4.6 mph /  7.4 km/h 76 % 0.00 in /  0 mm 0.0 W/m2 CLR
06:58 29.0 °F /  -1.7 °C 22.4 °F /  -5.3 °C 30.05 in /  1017.5 hPa Calm   3.5 mph /  5.6 km/h 76 % 0.00 in /  0 mm 0.0 W/m2 CLR
07:03 29.1 °F /  -1.6 °C 22.5 °F /  -5.3 °C 30.05 in /  1017.5 hPa West 0.3 mph /  0.5 km/h 3.5 mph /  5.6 km/h 76 % 0.00 in /  0 mm 0.0 W/m2 CLR
07:08 29.2 °F /  -1.6 °C 22.6 °F /  -5.2 °C 30.05 in /  1017.5 hPa West 0.7 mph /  1.1 km/h 5.8 mph /  9.3 km/h 76 % 0.00 in /  0 mm 0.0 W/m2 CLR
07:13 29.5 °F /  -1.4 °C 22.9 °F /  -5.1 °C 30.05 in /  1017.5 hPa WSW 1.2 mph /  1.9 km/h 5.8 mph /  9.3 km/h 76 % 0.00 in /  0 mm 0.0 W/m2 CLR
07:18 29.5 °F /  -1.4 °C 22.6 °F /  -5.2 °C 30.05 in /  1017.5 hPa WSW 0.5 mph /  0.8 km/h 5.8 mph /  9.3 km/h 75 % 0.00 in /  0 mm 5.0 W/m2 CLR
07:23 29.6 °F /  -1.3 °C 22.6 °F /  -5.2 °C 30.06 in /  1017.8 hPa West 1.2 mph /  1.9 km/h 3.5 mph /  5.6 km/h 75 % 0.00 in /  0 mm 7.0 W/m2 CLR
07:28 29.5 °F /  -1.4 °C 22.6 °F /  -5.2 °C 30.05 in /  1017.5 hPa West 0.9 mph /  1.4 km/h 3.5 mph /  5.6 km/h 75 % 0.00 in /  0 mm 11.0 W/m2 CLR
07:39 29.3 °F /  -1.5 °C 22.4 °F /  -5.3 °C 30.05 in /  1017.5 hPa Calm   3.5 mph /  5.6 km/h 75 % 0.00 in /  0 mm 14.0 W/m2 CLR
07:54 29.7 °F /  -1.3 °C 22.7 °F /  -5.2 °C 30.06 in /  1017.8 hPa Calm   3.5 mph /  5.6 km/h 75 % 0.00 in /  0 mm 19.0 W/m2 CLR
07:59 29.8 °F /  -1.2 °C 22.8 °F /  -5.1 °C 30.06 in /  1017.8 hPa West 2.5 mph /  4 km/h 5.8 mph /  9.3 km/h 75 % 0.00 in /  0 mm 21.0 W/m2 CLR
08:04 30.1 °F /  -1.1 °C 23.1 °F /  -4.9 °C 30.06 in /  1017.8 hPa WSW 0.6 mph /  1 km/h 5.8 mph /  9.3 km/h 75 % 0.00 in /  0 mm 33.0 W/m2 CLR
08:09 30.3 °F /  -0.9 °C 23.0 °F /  -5 °C 30.07 in /  1018.2 hPa WSW 0.7 mph /  1.1 km/h 5.8 mph /  9.3 km/h 74 % 0.00 in /  0 mm 32.0 W/m2 CLR
08:34 31.8 °F /  -0.1 °C 23.5 °F /  -4.7 °C 30.08 in /  1018.5 hPa SW 1.6 mph /  2.6 km/h 3.5 mph /  5.6 km/h 71 % 0.00 in /  0 mm 144.0 W/m2 CLR
08:39 32.0 °F /  0 °C 23.7 °F /  -4.6 °C 30.08 in /  1018.5 hPa Calm   3.5 mph /  5.6 km/h 71 % 0.00 in /  0 mm 104.0 W/m2 CLR
08:44 32.0 °F /  0 °C 23.7 °F /  -4.6 °C 30.08 in /  1018.5 hPa WSW 0.2 mph /  0.3 km/h 3.5 mph /  5.6 km/h 71 % 0.00 in /  0 mm 104.0 W/m2 CLR
09:09 32.8 °F /  0.4 °C 24.1 °F /  -4.4 °C 30.08 in /  1018.5 hPa Calm   3.5 mph /  5.6 km/h 70 % 0.00 in /  0 mm 142.0 W/m2 CLR
09:11 32.9 °F /  0.5 °C 24.2 °F /  -4.3 °C 30.08 in /  1018.5 hPa Calm   3.5 mph /  5.6 km/h 70 % 0.00 in /  0 mm 178.0 W/m2 CLR
09:16 33.4 °F /  0.8 °C 24.3 °F /  -4.3 °C 30.08 in /  1018.5 hPa SW 0.1 mph /  0.2 km/h 3.5 mph /  5.6 km/h 69 % 0.00 in /  0 mm 153.0 W/m2 CLR
09:21 33.6 °F /  0.9 °C 24.2 °F /  -4.3 °C 30.08 in /  1018.5 hPa SW 1.7 mph /  2.7 km/h 5.8 mph /  9.3 km/h 68 % 0.00 in /  0 mm 195.0 W/m2 CLR
09:26 34.1 °F /  1.2 °C 24.6 °F /  -4.1 °C 30.09 in /  1018.8 hPa SW 1.8 mph /  2.9 km/h 5.8 mph /  9.3 km/h 68 % 0.00 in /  0 mm 220.0 W/m2 CLR
09:36 35.0 °F /  1.7 °C 24.4 °F /  -4.2 °C 30.09 in /  1018.8 hPa SW 2.2 mph /  3.5 km/h 8.1 mph /  13 km/h 65 % 0.00 in /  0 mm 169.0 W/m2 CLR
09:41 35.1 °F /  1.7 °C 24.1 °F /  -4.4 °C 30.09 in /  1018.8 hPa SW 2.3 mph /  3.7 km/h 6.9 mph /  11.1 km/h 64 % 0.00 in /  0 mm 169.0 W/m2 CLR
09:56 35.4 °F /  1.9 °C 24.4 °F /  -4.2 °C 30.09 in /  1018.8 hPa West 2.3 mph /  3.7 km/h 8.1 mph /  13 km/h 64 % 0.00 in /  0 mm 172.0 W/m2 CLR
10:01 35.4 °F /  1.9 °C 24.4 °F /  -4.2 °C 30.09 in /  1018.8 hPa West 2.2 mph /  3.5 km/h 8.1 mph /  13 km/h 64 % 0.00 in /  0 mm 181.0 W/m2 CLR
10:06 35.5 °F /  1.9 °C 24.1 °F /  -4.4 °C 30.09 in /  1018.8 hPa SW 2.7 mph /  4.3 km/h 8.1 mph /  13 km/h 63 % 0.00 in /  0 mm 178.0 W/m2 BKN
10:11 35.6 °F /  2 °C 24.2 °F /  -4.3 °C 30.10 in /  1019.2 hPa West 2.3 mph /  3.7 km/h 6.9 mph /  11.1 km/h 63 % 0.00 in /  0 mm 151.0 W/m2 BKN
10:16 35.9 °F /  2.2 °C 24.5 °F /  -4.2 °C 30.10 in /  1019.2 hPa West 0.9 mph /  1.4 km/h 8.1 mph /  13 km/h 63 % 0.00 in /  0 mm 151.0 W/m2 BKN
10:21 35.7 °F /  2.1 °C 23.9 °F /  -4.5 °C 30.10 in /  1019.2 hPa WSW 7.7 mph /  12.4 km/h 8.1 mph /  13 km/h 62 % 0.00 in /  0 mm 141.0 W/m2 BKN
10:31 35.8 °F /  2.1 °C 24.0 °F /  -4.4 °C 30.09 in /  1018.8 hPa WSW 4.6 mph /  7.4 km/h 11.5 mph /  18.5 km/h 62 % 0.00 in /  0 mm 144.0 W/m2 BKN
10:46 36.2 °F /  2.3 °C 24.4 °F /  -4.2 °C 30.09 in /  1018.8 hPa WSW 2.0 mph /  3.2 km/h 9.2 mph /  14.8 km/h 62 % 0.00 in /  0 mm 134.0 W/m2 BKN
10:51 36.2 °F /  2.3 °C 24.4 °F /  -4.2 °C 30.09 in /  1018.8 hPa SW 1.1 mph /  1.8 km/h 11.5 mph /  18.5 km/h 62 % 0.00 in /  0 mm 148.0 W/m2 BKN
10:56 36.3 °F /  2.4 °C 24.5 °F /  -4.2 °C 30.08 in /  1018.5 hPa WSW 2.4 mph /  3.9 km/h 11.5 mph /  18.5 km/h 62 % 0.00 in /  0 mm 158.0 W/m2 BKN
11:01 36.5 °F /  2.5 °C 24.7 °F /  -4.1 °C 30.08 in /  1018.5 hPa SW 1.0 mph /  1.6 km/h 11.5 mph /  18.5 km/h 62 % 0.00 in /  0 mm 160.0 W/m2 OVC
11:06 36.6 °F /  2.6 °C 24.8 °F /  -4 °C 30.08 in /  1018.5 hPa SW 0.5 mph /  0.8 km/h 11.5 mph /  18.5 km/h 62 % 0.00 in /  0 mm 195.0 W/m2 OVC
11:26 38.4 °F /  3.6 °C 24.9 °F /  -3.9 °C 30.07 in /  1018.2 hPa WSW 4.8 mph /  7.7 km/h 12.7 mph /  20.4 km/h 58 % 0.00 in /  0 mm 246.0 W/m2 OVC
11:31 38.3 °F /  3.5 °C 24.8 °F /  -4 °C 30.07 in /  1018.2 hPa WNW 2.0 mph /  3.2 km/h 12.7 mph /  20.4 km/h 58 % 0.00 in /  0 mm 237.0 W/m2 OVC
11:36 38.2 °F /  3.4 °C 24.3 °F /  -4.3 °C 30.06 in /  1017.8 hPa WSW 9.2 mph /  14.8 km/h 16.1 mph /  25.9 km/h 57 % 0.00 in /  0 mm 279.0 W/m2 OVC
11:41 38.5 °F /  3.6 °C 24.6 °F /  -4.1 °C 30.06 in /  1017.8 hPa WSW 3.3 mph /  5.3 km/h 16.1 mph /  25.9 km/h 57 % 0.00 in /  0 mm 281.0 W/m2 OVC
11:51 38.9 °F /  3.8 °C 24.5 °F /  -4.2 °C 30.06 in /  1017.8 hPa West 3.9 mph /  6.3 km/h 16.1 mph /  25.9 km/h 56 % 0.00 in /  0 mm 213.0 W/m2 OVC
12:01 39.0 °F /  3.9 °C 24.2 °F /  -4.3 °C 30.05 in /  1017.5 hPa WSW 8.1 mph /  13 km/h 20.7 mph /  33.3 km/h 55 % 0.00 in /  0 mm 475.0 W/m2 BKN
12:06 39.3 °F /  4.1 °C 24.5 °F /  -4.2 °C 30.05 in /  1017.5 hPa WSW 10.1 mph /  16.3 km/h 20.7 mph /  33.3 km/h 55 % 0.00 in /  0 mm 446.0 W/m2 BKN
12:11 39.9 °F /  4.4 °C 25.0 °F /  -3.9 °C 30.04 in /  1017.2 hPa WSW 0.3 mph /  0.5 km/h 17.3 mph /  27.8 km/h 55 % 0.00 in /  0 mm 446.0 W/m2 BKN
12:16 39.9 °F /  4.4 °C 24.6 °F /  -4.1 °C 30.04 in /  1017.2 hPa SSW 3.9 mph /  6.3 km/h 17.3 mph /  27.8 km/h 54 % 0.00 in /  0 mm 448.0 W/m2 BKN
12:21 39.8 °F /  4.3 °C 24.9 °F /  -3.9 °C 30.04 in /  1017.2 hPa WSW 3.3 mph /  5.3 km/h 16.1 mph /  25.9 km/h 55 % 0.00 in /  0 mm 445.0 W/m2 BKN
12:31 39.7 °F /  4.3 °C 24.0 °F /  -4.4 °C 30.03 in /  1016.8 hPa SSW 9.1 mph /  14.6 km/h 16.1 mph /  25.9 km/h 53 % 0.00 in /  0 mm 441.0 W/m2 BKN
12:36 40.0 °F /  4.4 °C 24.2 °F /  -4.3 °C 30.03 in /  1016.8 hPa SW 8.5 mph /  13.7 km/h 16.1 mph /  25.9 km/h 53 % 0.00 in /  0 mm 445.0 W/m2 BKN
12:37 40.0 °F /  4.4 °C 24.2 °F /  -4.3 °C 30.03 in /  1016.8 hPa SW 8.1 mph /  13 km/h 16.1 mph /  25.9 km/h 53 % 0.00 in /  0 mm 445.0 W/m2 BKN
12:47 40.5 °F /  4.7 °C 23.8 °F /  -4.6 °C 30.03 in /  1016.8 hPa West 11.1 mph /  17.9 km/h 16.1 mph /  25.9 km/h 51 % 0.00 in /  0 mm 431.0 W/m2 BKN
13:02 40.9 °F /  4.9 °C 24.1 °F /  -4.4 °C 30.02 in /  1016.5 hPa West 7.6 mph /  12.2 km/h 18.4 mph /  29.6 km/h 51 % 0.00 in /  0 mm 392.0 W/m2 FEW
13:07 40.5 °F /  4.7 °C 24.2 °F /  -4.3 °C 30.02 in /  1016.5 hPa West 6.2 mph /  10 km/h 12.7 mph /  20.4 km/h 52 % 0.00 in /  0 mm 415.0 W/m2 FEW
13:17 41.4 °F /  5.2 °C 25.1 °F /  -3.8 °C 30.02 in /  1016.5 hPa WSW 1.7 mph /  2.7 km/h 11.5 mph /  18.5 km/h 52 % 0.00 in /  0 mm 396.0 W/m2 FEW
13:22 41.6 °F /  5.3 °C 24.8 °F /  -4 °C 30.02 in /  1016.5 hPa WSW 1.7 mph /  2.7 km/h 12.7 mph /  20.4 km/h 51 % 0.00 in /  0 mm 378.0 W/m2 FEW
13:27 41.3 °F /  5.2 °C 24.5 °F /  -4.2 °C 30.01 in /  1016.1 hPa West 6.7 mph /  10.8 km/h 13.8 mph /  22.2 km/h 51 % 0.00 in /  0 mm 373.0 W/m2 FEW
13:42 41.4 °F /  5.2 °C 25.1 °F /  -3.8 °C 30.00 in /  1015.8 hPa WSW 3.0 mph /  4.8 km/h 12.7 mph /  20.4 km/h 52 % 0.00 in /  0 mm 350.0 W/m2 FEW
13:47 41.7 °F /  5.4 °C 25.4 °F /  -3.7 °C 30.00 in /  1015.8 hPa WSW 3.1 mph /  5 km/h 12.7 mph /  20.4 km/h 52 % 0.00 in /  0 mm 341.0 W/m2 FEW
13:52 41.5 °F /  5.3 °C 24.7 °F /  -4.1 °C 30.00 in /  1015.8 hPa SW 6.3 mph /  10.1 km/h 15.0 mph /  24.1 km/h 51 % 0.00 in /  0 mm 338.0 W/m2 FEW
13:57 41.4 °F /  5.2 °C 25.1 °F /  -3.8 °C 30.00 in /  1015.8 hPa West 2.2 mph /  3.5 km/h 15.0 mph /  24.1 km/h 52 % 0.00 in /  0 mm 327.0 W/m2 FEW
14:07 41.6 °F /  5.3 °C 24.8 °F /  -4 °C 30.00 in /  1015.8 hPa SW 3.6 mph /  5.8 km/h 17.3 mph /  27.8 km/h 51 % 0.00 in /  0 mm 301.0 W/m2 CLR
14:12 41.5 °F /  5.3 °C 25.2 °F /  -3.8 °C 30.00 in /  1015.8 hPa WSW 6.8 mph /  10.9 km/h 13.8 mph /  22.2 km/h 52 % 0.00 in /  0 mm 292.0 W/m2 CLR
14:17 41.5 °F /  5.3 °C 24.7 °F /  -4.1 °C 30.00 in /  1015.8 hPa Calm   13.8 mph /  22.2 km/h 51 % 0.00 in /  0 mm 67.0 W/m2 CLR
14:22 41.3 °F /  5.2 °C 24.0 °F /  -4.4 °C 30.00 in /  1015.8 hPa SSW 6.0 mph /  9.7 km/h 16.1 mph /  25.9 km/h 50 % 0.00 in /  0 mm 230.0 W/m2 CLR
14:27 41.2 °F /  5.1 °C 24.4 °F /  -4.2 °C 30.00 in /  1015.8 hPa SSW 6.0 mph /  9.7 km/h 16.1 mph /  25.9 km/h 51 % 0.00 in /  0 mm 116.0 W/m2 CLR
14:32 40.9 °F /  4.9 °C 24.1 °F /  -4.4 °C 30.00 in /  1015.8 hPa WSW 5.7 mph /  9.2 km/h 15.0 mph /  24.1 km/h 51 % 0.00 in /  0 mm 60.0 W/m2 CLR
14:37 40.5 °F /  4.7 °C 24.2 °F /  -4.3 °C 30.00 in /  1015.8 hPa SW 3.8 mph /  6.1 km/h 15.0 mph /  24.1 km/h 52 % 0.00 in /  0 mm 53.0 W/m2 CLR
14:42 40.3 °F /  4.6 °C 24.5 °F /  -4.2 °C 30.00 in /  1015.8 hPa West 5.6 mph /  9 km/h 12.7 mph /  20.4 km/h 53 % 0.00 in /  0 mm 63.0 W/m2 CLR
14:53 40.5 °F /  4.7 °C 24.2 °F /  -4.3 °C 30.00 in /  1015.8 hPa SW 7.9 mph /  12.7 km/h 15.0 mph /  24.1 km/h 52 % 0.00 in /  0 mm 165.0 W/m2 CLR
14:58 40.9 °F /  4.9 °C 24.6 °F /  -4.1 °C 30.00 in /  1015.8 hPa SW 8.2 mph /  13.2 km/h 15.0 mph /  24.1 km/h 52 % 0.00 in /  0 mm 206.0 W/m2 CLR
15:03 41.1 °F /  5.1 °C 23.9 °F /  -4.5 °C 30.00 in /  1015.8 hPa SW 0.4 mph /  0.6 km/h 15.0 mph /  24.1 km/h 50 % 0.00 in /  0 mm 153.0 W/m2 OVC
15:07 41.3 °F /  5.2 °C 24.5 °F /  -4.2 °C 30.00 in /  1015.8 hPa SSW 5.6 mph /  9 km/h 13.8 mph /  22.2 km/h 51 % 0.00 in /  0 mm 109.0 W/m2 OVC
15:18 40.7 °F /  4.8 °C 24.0 °F /  -4.4 °C 30.00 in /  1015.8 hPa WSW 2.1 mph /  3.4 km/h 11.5 mph /  18.5 km/h 51 % 0.00 in /  0 mm 81.0 W/m2 OVC
15:33 40.7 °F /  4.8 °C 24.4 °F /  -4.2 °C 30.00 in /  1015.8 hPa WSW 4.3 mph /  6.9 km/h 11.5 mph /  18.5 km/h 52 % 0.00 in /  0 mm 67.0 W/m2 OVC
15:38 40.6 °F /  4.8 °C 24.3 °F /  -4.3 °C 30.00 in /  1015.8 hPa WSW 6.3 mph /  10.1 km/h 11.5 mph /  18.5 km/h 52 % 0.00 in /  0 mm 39.0 W/m2 OVC
15:48 40.6 °F /  4.8 °C 24.3 °F /  -4.3 °C 30.00 in /  1015.8 hPa WSW 3.0 mph /  4.8 km/h 11.5 mph /  18.5 km/h 52 % 0.00 in /  0 mm 30.0 W/m2 OVC
15:53 40.5 °F /  4.7 °C 23.8 °F /  -4.6 °C 30.00 in /  1015.8 hPa WSW 3.9 mph /  6.3 km/h 11.5 mph /  18.5 km/h 51 % 0.00 in /  0 mm 28.0 W/m2 OVC
15:58 40.5 °F /  4.7 °C 23.8 °F /  -4.6 °C 30.00 in /  1015.8 hPa SW 0.6 mph /  1 km/h 11.5 mph /  18.5 km/h 51 % 0.00 in /  0 mm 42.0 W/m2 OVC
16:03 40.5 °F /  4.7 °C 23.8 °F /  -4.6 °C 30.00 in /  1015.8 hPa WSW 1.1 mph /  1.8 km/h 12.7 mph /  20.4 km/h 51 % 0.00 in /  0 mm 32.0 W/m2 OVC
16:24 39.8 °F /  4.3 °C 23.6 °F /  -4.7 °C 30.00 in /  1015.8 hPa SSW 7.3 mph /  11.7 km/h 11.5 mph /  18.5 km/h 52 % 0.00 in /  0 mm 9.0 W/m2 OVC
16:29 39.6 °F /  4.2 °C 23.4 °F /  -4.8 °C 30.00 in /  1015.8 hPa WSW 3.1 mph /  5 km/h 12.7 mph /  20.4 km/h 52 % 0.00 in /  0 mm 5.0 W/m2 OVC
16:34 39.4 °F /  4.1 °C 23.7 °F /  -4.6 °C 30.00 in /  1015.8 hPa SW 0.8 mph /  1.3 km/h 12.7 mph /  20.4 km/h 53 % 0.00 in /  0 mm 0.0 W/m2 OVC
16:49 38.5 °F /  3.6 °C 24.1 °F /  -4.4 °C 29.99 in /  1015.5 hPa Calm   1.2 mph /  1.9 km/h 56 % 0.00 in /  0 mm 0.0 W/m2 OVC
16:54 38.2 °F /  3.4 °C 23.9 °F /  -4.5 °C 29.99 in /  1015.5 hPa Calm   1.2 mph /  1.9 km/h 56 % 0.00 in /  0 mm 0.0 W/m2 OVC
16:59 38.1 °F /  3.4 °C 23.8 °F /  -4.6 °C 29.99 in /  1015.5 hPa Calm     56 % 0.00 in /  0 mm 0.0 W/m2 OVC
17:04 38.1 °F /  3.4 °C 23.8 °F /  -4.6 °C 29.99 in /  1015.5 hPa Calm     56 % 0.00 in /  0 mm 0.0 W/m2 SCT
17:14 38.2 °F /  3.4 °C 23.9 °F /  -4.5 °C 29.99 in /  1015.5 hPa Calm     56 % 0.00 in /  0 mm 0.0 W/m2 SCT
17:19 38.1 °F /  3.4 °C 23.8 °F /  -4.6 °C 29.99 in /  1015.5 hPa Calm     56 % 0.00 in /  0 mm 0.0 W/m2 SCT
17:24 38.1 °F /  3.4 °C 23.8 °F /  -4.6 °C 29.99 in /  1015.5 hPa Calm     56 % 0.00 in /  0 mm 0.0 W/m2 SCT
17:29 38.0 °F /  3.3 °C 23.7 °F /  -4.6 °C 30.00 in /  1015.8 hPa Calm     56 % 0.00 in /  0 mm 0.0 W/m2 SCT
17:39 37.8 °F /  3.2 °C 23.5 °F /  -4.7 °C 30.00 in /  1015.8 hPa Calm   2.3 mph /  3.7 km/h 56 % 0.00 in /  0 mm 0.0 W/m2 SCT
17:44 37.8 °F /  3.2 °C 23.5 °F /  -4.7 °C 30.00 in /  1015.8 hPa Calm   1.2 mph /  1.9 km/h 56 % 0.00 in /  0 mm 0.0 W/m2 SCT
17:49 37.8 °F /  3.2 °C 23.5 °F /  -4.7 °C 30.00 in /  1015.8 hPa Calm     56 % 0.00 in /  0 mm 0.0 W/m2 SCT
17:54 37.8 °F /  3.2 °C 23.5 °F /  -4.7 °C 30.00 in /  1015.8 hPa Calm     56 % 0.00 in /  0 mm 0.0 W/m2 SCT
17:59 37.6 °F /  3.1 °C 23.3 °F /  -4.8 °C 30.00 in /  1015.8 hPa Calm     56 % 0.00 in /  0 mm 0.0 W/m2 SCT
18:04 37.3 °F /  2.9 °C 23.4 °F /  -4.8 °C 30.00 in /  1015.8 hPa Calm     57 % 0.00 in /  0 mm 0.0 W/m2 OVC
18:09 37.1 °F /  2.8 °C 23.3 °F /  -4.8 °C 30.00 in /  1015.8 hPa Calm     57 % 0.00 in /  0 mm 0.0 W/m2 OVC
18:14 37.1 °F /  2.8 °C 23.3 °F /  -4.8 °C 30.00 in /  1015.8 hPa Calm     57 % 0.00 in /  0 mm 0.0 W/m2 OVC
18:24 37.6 °F /  3.1 °C 23.7 °F /  -4.6 °C 30.01 in /  1016.1 hPa Calm     57 % 0.00 in /  0 mm 0.0 W/m2 OVC
18:29 37.8 °F /  3.2 °C 23.5 °F /  -4.7 °C 30.01 in /  1016.1 hPa SW 0.1 mph /  0.2 km/h   56 % 0.00 in /  0 mm 0.0 W/m2 OVC
18:39 38.2 °F /  3.4 °C 23.9 °F /  -4.5 °C 30.01 in /  1016.1 hPa Calm   1.2 mph /  1.9 km/h 56 % 0.00 in /  0 mm 0.0 W/m2 OVC
18:44 38.3 °F /  3.5 °C 24.0 °F /  -4.4 °C 30.01 in /  1016.1 hPa Calm   1.2 mph /  1.9 km/h 56 % 0.00 in /  0 mm 0.0 W/m2 OVC
18:49 38.4 °F /  3.6 °C 24.1 °F /  -4.4 °C 30.02 in /  1016.5 hPa Calm   3.5 mph /  5.6 km/h 56 % 0.00 in /  0 mm 0.0 W/m2 OVC
18:54 38.3 °F /  3.5 °C 24.4 °F /  -4.2 °C 30.02 in /  1016.5 hPa Calm   3.5 mph /  5.6 km/h 57 % 0.00 in /  0 mm 0.0 W/m2 OVC
19:09 37.9 °F /  3.3 °C 24.4 °F /  -4.2 °C 30.01 in /  1016.1 hPa WNW 0.4 mph /  0.6 km/h 2.3 mph /  3.7 km/h 58 % 0.00 in /  0 mm 0.0 W/m2 OVC
19:14 37.8 °F /  3.2 °C 24.3 °F /  -4.3 °C 30.02 in /  1016.5 hPa WNW 2.0 mph /  3.2 km/h 6.9 mph /  11.1 km/h 58 % 0.00 in /  0 mm 0.0 W/m2 OVC
19:19 37.9 °F /  3.3 °C 24.4 °F /  -4.2 °C 30.02 in /  1016.5 hPa WNW 0.1 mph /  0.2 km/h 6.9 mph /  11.1 km/h 58 % 0.00 in /  0 mm 0.0 W/m2 OVC
19:25 38.2 °F /  3.4 °C 24.7 °F /  -4.1 °C 30.02 in /  1016.5 hPa Calm   6.9 mph /  11.1 km/h 58 % 0.00 in /  0 mm 0.0 W/m2 OVC
19:30 38.4 °F /  3.6 °C 24.5 °F /  -4.2 °C 30.02 in /  1016.5 hPa WNW 0.2 mph /  0.3 km/h 8.1 mph /  13 km/h 57 % 0.00 in /  0 mm 0.0 W/m2 OVC
19:35 38.5 °F /  3.6 °C 24.6 °F /  -4.1 °C 30.02 in /  1016.5 hPa West 0.2 mph /  0.3 km/h 8.1 mph /  13 km/h 57 % 0.00 in /  0 mm 0.0 W/m2 OVC
19:45 38.6 °F /  3.7 °C 25.5 °F /  -3.6 °C 30.02 in /  1016.5 hPa West 0.1 mph /  0.2 km/h 9.2 mph /  14.8 km/h 59 % 0.00 in /  0 mm 0.0 W/m2 OVC
19:50 38.4 °F /  3.6 °C 25.3 °F /  -3.7 °C 30.02 in /  1016.5 hPa West 0.5 mph /  0.8 km/h 9.2 mph /  14.8 km/h 59 % 0.00 in /  0 mm 0.0 W/m2 OVC
19:55 38.0 °F /  3.3 °C 25.3 °F /  -3.7 °C 30.02 in /  1016.5 hPa Calm   6.9 mph /  11.1 km/h 60 % 0.00 in /  0 mm 0.0 W/m2 OVC
20:00 37.6 °F /  3.1 °C 25.7 °F /  -3.5 °C 30.03 in /  1016.8 hPa Calm   6.9 mph /  11.1 km/h 62 % 0.00 in /  0 mm 0.0 W/m2 OVC
20:10 37.3 °F /  2.9 °C 25.8 °F /  -3.4 °C 30.03 in /  1016.8 hPa Calm   1.2 mph /  1.9 km/h 63 % 0.00 in /  0 mm 0.0 W/m2 OVC
20:20 37.3 °F /  2.9 °C 25.8 °F /  -3.4 °C 30.04 in /  1017.2 hPa Calm   1.2 mph /  1.9 km/h 63 % 0.00 in /  0 mm 0.0 W/m2 OVC
20:35 36.8 °F /  2.7 °C 25.8 °F /  -3.4 °C 30.03 in /  1016.8 hPa Calm     64 % 0.00 in /  0 mm 0.0 W/m2 OVC
20:45 36.6 °F /  2.6 °C 25.6 °F /  -3.6 °C 30.04 in /  1017.2 hPa Calm     64 % 0.00 in /  0 mm 0.0 W/m2 OVC
20:50 36.4 °F /  2.4 °C 25.7 °F /  -3.5 °C 30.04 in /  1017.2 hPa Calm     65 % 0.00 in /  0 mm 0.0 W/m2 OVC
20:55 36.3 °F /  2.4 °C 26.1 °F /  -3.3 °C 30.04 in /  1017.2 hPa Calm     66 % 0.00 in /  0 mm 0.0 W/m2 OVC
21:00 36.4 °F /  2.4 °C 26.1 °F /  -3.3 °C 30.05 in /  1017.5 hPa Calm     66 % 0.00 in /  0 mm 0.0 W/m2 OVC
21:05 36.7 °F /  2.6 °C 26.4 °F /  -3.1 °C 30.05 in /  1017.5 hPa Calm     66 % 0.00 in /  0 mm 0.0 W/m2 BKN
21:10 36.8 °F /  2.7 °C 26.9 °F /  -2.8 °C 30.05 in /  1017.5 hPa West 0.3 mph /  0.5 km/h 9.2 mph /  14.8 km/h 67 % 0.00 in /  0 mm 0.0 W/m2 BKN
21:15 36.7 °F /  2.6 °C 27.8 °F /  -2.3 °C 30.06 in /  1017.8 hPa West 6.3 mph /  10.1 km/h 15.0 mph /  24.1 km/h 70 % 0.00 in /  0 mm 0.0 W/m2 BKN
21:20 36.3 °F /  2.4 °C 27.8 °F /  -2.3 °C 30.05 in /  1017.5 hPa West 6.2 mph /  10 km/h 15.0 mph /  24.1 km/h 71 % 0.00 in /  0 mm 0.0 W/m2 BKN
21:30 35.5 °F /  1.9 °C 28.4 °F /  -2 °C 30.05 in /  1017.5 hPa Calm   9.2 mph /  14.8 km/h 75 % 0.00 in /  0 mm 0.0 W/m2 BKN
21:35 35.3 °F /  1.8 °C 28.5 °F /  -1.9 °C 30.06 in /  1017.8 hPa Calm     76 % 0.00 in /  0 mm 0.0 W/m2 BKN
21:40 35.2 °F /  1.8 °C 28.7 °F /  -1.8 °C 30.06 in /  1017.8 hPa Calm     77 % 0.00 in /  0 mm 0.0 W/m2 BKN
21:45 35.2 °F /  1.8 °C 29.0 °F /  -1.7 °C 30.06 in /  1017.8 hPa Calm     78 % 0.00 in /  0 mm 0.0 W/m2 BKN
21:50 35.3 °F /  1.8 °C 29.1 °F /  -1.6 °C 30.06 in /  1017.8 hPa WSW 5.0 mph /  8 km/h 12.0 mph /  19.3 km/h 78 % 0.00 in /  0 mm 0.0 W/m2 BKN
22:00 35.5 °F /  1.9 °C 29.0 °F /  -1.7 °C 30.05 in /  1017.5 hPa SW 0.5 mph /  0.8 km/h 10.4 mph /  16.7 km/h 77 % 0.00 in /  0 mm 0.0 W/m2 BKN
22:05 35.5 °F /  1.9 °C 29.0 °F /  -1.7 °C 30.06 in /  1017.8 hPa SW 0.1 mph /  0.2 km/h 10.4 mph /  16.7 km/h 77 % 0.00 in /  0 mm 0.0 W/m2 -SN
22:10 35.4 °F /  1.9 °C 28.9 °F /  -1.7 °C 30.06 in /  1017.8 hPa WSW 1.0 mph /  1.6 km/h 10.4 mph /  16.7 km/h 77 % 0.00 in /  0 mm 0.0 W/m2 -SN
22:16 35.4 °F /  1.9 °C 28.9 °F /  -1.7 °C 30.06 in /  1017.8 hPa SW 0.3 mph /  0.5 km/h 4.6 mph /  7.4 km/h 77 % 0.00 in /  0 mm 0.0 W/m2 -SN
22:19 35.4 °F /  1.9 °C 28.9 °F /  -1.7 °C 30.06 in /  1017.8 hPa SW 1.2 mph /  1.9 km/h 4.6 mph /  7.4 km/h 77 % 0.00 in /  0 mm 0.0 W/m2 -SN
22:21 35.4 °F /  1.9 °C 28.9 °F /  -1.7 °C 30.06 in /  1017.8 hPa SW 0.1 mph /  0.2 km/h 6.9 mph /  11.1 km/h 77 % 0.00 in /  0 mm 0.0 W/m2 -SN
22:24 35.4 °F /  1.9 °C 28.9 °F /  -1.7 °C 30.05 in /  1017.5 hPa WSW 0.1 mph /  0.2 km/h 6.9 mph /  11.1 km/h 77 % 0.00 in /  0 mm 0.0 W/m2 -SN
22:26 35.4 °F /  1.9 °C 28.9 °F /  -1.7 °C 30.05 in /  1017.5 hPa Calm   6.9 mph /  11.1 km/h 77 % 0.00 in /  0 mm 0.0 W/m2 -SN
22:31 35.2 °F /  1.8 °C 28.7 °F /  -1.8 °C 30.06 in /  1017.8 hPa WSW 0.2 mph /  0.3 km/h 6.9 mph /  11.1 km/h 77 % 0.00 in /  0 mm 0.0 W/m2 -SN
22:37 35.0 °F /  1.7 °C 28.5 °F /  -1.9 °C 30.06 in /  1017.8 hPa SW 0.1 mph /  0.2 km/h 2.3 mph /  3.7 km/h 77 % 0.00 in /  0 mm 0.0 W/m2 -SN
23:02 34.2 °F /  1.2 °C 28.1 °F /  -2.2 °C 30.05 in /  1017.5 hPa WSW 0.1 mph /  0.2 km/h 5.8 mph /  9.3 km/h 78 % 0.00 in /  0 mm 0.0 W/m2 BKN
23:07 34.2 °F /  1.2 °C 28.1 °F /  -2.2 °C 30.05 in /  1017.5 hPa West 0.1 mph /  0.2 km/h 5.8 mph /  9.3 km/h 78 % 0.00 in /  0 mm 0.0 W/m2 BKN
23:12 34.3 °F /  1.3 °C 28.2 °F /  -2.1 °C 30.06 in /  1017.8 hPa Calm   1.2 mph /  1.9 km/h 78 % 0.00 in /  0 mm 0.0 W/m2 BKN
23:17 34.4 °F /  1.3 °C 27.9 °F /  -2.3 °C 30.06 in /  1017.8 hPa Calm   1.2 mph /  1.9 km/h 77 % 0.00 in /  0 mm 0.0 W/m2 BKN
23:32 34.7 °F /  1.5 °C 27.9 °F /  -2.3 °C 30.06 in /  1017.8 hPa Calm     76 % 0.00 in /  0 mm 0.0 W/m2 BKN
23:37 34.6 °F /  1.4 °C 27.8 °F /  -2.3 °C 30.06 in /  1017.8 hPa Calm   1.2 mph /  1.9 km/h 76 % 0.00 in /  0 mm 0.0 W/m2 BKN
23:47 34.2 °F /  1.2 °C 27.4 °F /  -2.6 °C 30.06 in /  1017.8 hPa Calm   1.2 mph /  1.9 km/h 76 % 0.00 in /  0 mm 0.0 W/m2 BKN
23:52 34.0 °F /  1.1 °C 27.2 °F /  -2.7 °C 30.06 in /  1017.8 hPa Calm     76 % 0.00 in /  0 mm 0.0 W/m2 BKN
23:57 33.9 °F /  1.1 °C 27.4 °F /  -2.6 °C 30.06 in /  1017.8 hPa Calm     77 % 0.00 in /  0 mm 0.0 W/m2 BKN
Air Products Campus Weather
Compliments of Weather Underground - 3 mb